sensor_id;sensor_type;location;lat;lon;timestamp;pressure;altitude;pressure_sealevel;temperature;humidity
13800;BME280;6971;50.028;9.258;2023-02-24T00:04:44;99037.97;;;6.80;100.00
13800;BME280;6971;50.028;9.258;2023-02-24T00:09:50;99040.19;;;6.69;100.00
13800;BME280;6971;50.028;9.258;2023-02-24T00:14:51;99032.56;;;6.64;100.00
13800;BME280;6971;50.028;9.258;2023-02-24T00:19:51;99026.97;;;6.72;100.00
13800;BME280;6971;50.028;9.258;2023-02-24T00:24:52;99029.78;;;6.67;100.00
13800;BME280;6971;50.028;9.258;2023-02-24T00:29:53;99012.78;;;6.57;100.00
13800;BME280;6971;50.028;9.258;2023-02-24T00:34:53;99010.81;;;6.62;100.00
13800;BME280;6971;50.028;9.258;2023-02-24T00:39:54;99003.31;;;6.54;100.00
13800;BME280;6971;50.028;9.258;2023-02-24T00:44:57;98994.81;;;6.49;100.00
13800;BME280;6971;50.028;9.258;2023-02-24T00:49:58;98995.41;;;6.35;100.00
13800;BME280;6971;50.028;9.258;2023-02-24T00:54:58;98985.53;;;6.42;100.00
13800;BME280;6971;50.028;9.258;2023-02-24T00:59:58;98980.16;;;6.45;100.00
13800;BME280;6971;50.028;9.258;2023-02-24T01:04:59;98965.91;;;6.31;100.00
13800;BME280;6971;50.028;9.258;2023-02-24T01:10:05;98974.53;;;6.33;100.00
13800;BME280;6971;50.028;9.258;2023-02-24T01:15:09;98973.34;;;6.40;100.00
13800;BME280;6971;50.028;9.258;2023-02-24T01:20:11;98963.22;;;6.33;100.00
13800;BME280;6971;50.028;9.258;2023-02-24T01:25:18;98964.22;;;6.30;100.00
13800;BME280;6971;50.028;9.258;2023-02-24T01:30:21;98963.94;;;6.36;100.00
13800;BME280;6971;50.028;9.258;2023-02-24T01:35:24;98955.16;;;6.37;100.00
13800;BME280;6971;50.028;9.258;2023-02-24T01:40:24;98950.28;;;6.09;100.00
13800;BME280;6971;50.028;9.258;2023-02-24T01:45:29;98942.09;;;6.17;100.00
13800;BME280;6971;50.028;9.258;2023-02-24T01:50:31;98931.78;;;6.13;100.00
13800;BME280;6971;50.028;9.258;2023-02-24T01:55:41;98926.78;;;6.07;100.00
13800;BME280;6971;50.028;9.258;2023-02-24T02:00:42;98925.53;;;5.95;100.00
13800;BME280;6971;50.028;9.258;2023-02-24T02:05:46;98921.09;;;5.77;100.00
13800;BME280;6971;50.028;9.258;2023-02-24T02:10:47;98925.84;;;5.67;100.00
13800;BME280;6971;50.028;9.258;2023-02-24T02:43:00;98920.09;;;5.58;100.00
13800;BME280;6971;50.028;9.258;2023-02-24T02:48:06;98893.94;;;5.58;100.00
13800;BME280;6971;50.028;9.258;2023-02-24T02:53:14;98900.03;;;5.59;100.00
13800;BME280;6971;50.028;9.258;2023-02-24T02:58:22;98890.69;;;5.53;100.00
13800;BME280;6971;50.028;9.258;2023-02-24T03:03:26;98891.50;;;5.55;100.00
13800;BME280;6971;50.028;9.258;2023-02-24T03:08:31;98893.75;;;5.42;100.00
13800;BME280;6971;50.028;9.258;2023-02-24T03:13:38;98887.69;;;5.42;100.00
13800;BME280;6971;50.028;9.258;2023-02-24T03:18:44;98882.19;;;5.48;100.00
13800;BME280;6971;50.028;9.258;2023-02-24T03:23:50;98866.97;;;5.58;100.00
13800;BME280;6971;50.028;9.258;2023-02-24T03:28:56;98860.28;;;5.51;100.00
13800;BME280;6971;50.028;9.258;2023-02-24T03:34:05;98867.81;;;5.58;100.00
13800;BME280;6971;50.028;9.258;2023-02-24T03:39:07;98866.03;;;5.38;100.00
13800;BME280;6971;50.028;9.258;2023-02-24T03:44:11;98861.66;;;5.39;100.00
13800;BME280;6971;50.028;9.258;2023-02-24T03:49:13;98863.38;;;5.40;100.00
13800;BME280;6971;50.028;9.258;2023-02-24T04:05:07;98851.59;;;5.29;100.00
13800;BME280;6971;50.028;9.258;2023-02-24T04:20:20;98841.16;;;5.29;100.00
13800;BME280;6971;50.028;9.258;2023-02-24T04:25:23;98826.97;;;5.14;100.00
13800;BME280;6971;50.028;9.258;2023-02-24T04:30:27;98816.63;;;5.11;100.00
13800;BME280;6971;50.028;9.258;2023-02-24T04:35:29;98818.75;;;5.01;100.00
13800;BME280;6971;50.028;9.258;2023-02-24T04:40:29;98807.53;;;4.99;100.00
13800;BME280;6971;50.028;9.258;2023-02-24T04:45:30;98803.84;;;5.05;100.00
13800;BME280;6971;50.028;9.258;2023-02-24T04:50:34;98792.59;;;5.03;100.00
13800;BME280;6971;50.028;9.258;2023-02-24T04:55:37;98783.00;;;5.03;100.00
13800;BME280;6971;50.028;9.258;2023-02-24T05:00:41;98779.72;;;4.98;100.00
13800;BME280;6971;50.028;9.258;2023-02-24T05:10:50;98766.03;;;4.93;100.00
13800;BME280;6971;50.028;9.258;2023-02-24T05:15:52;98758.84;;;4.98;100.00
13800;BME280;6971;50.028;9.258;2023-02-24T05:20:56;98757.66;;;5.05;100.00
13800;BME280;6971;50.028;9.258;2023-02-24T05:26:17;98749.75;;;5.07;100.00
13800;BME280;6971;50.028;9.258;2023-02-24T05:31:20;98749.69;;;5.08;100.00
13800;BME280;6971;50.028;9.258;2023-02-24T05:36:23;98746.56;;;5.00;100.00
13800;BME280;6971;50.028;9.258;2023-02-24T05:41:25;98744.88;;;4.99;100.00
13800;BME280;6971;50.028;9.258;2023-02-24T05:46:40;98736.50;;;4.91;100.00
13800;BME280;6971;50.028;9.258;2023-02-24T05:51:41;98731.75;;;5.01;100.00
13800;BME280;6971;50.028;9.258;2023-02-24T05:57:06;98729.47;;;4.93;100.00
13800;BME280;6971;50.028;9.258;2023-02-24T06:02:10;98729.59;;;4.90;100.00
13800;BME280;6971;50.028;9.258;2023-02-24T06:07:14;98726.56;;;4.78;100.00
13800;BME280;6971;50.028;9.258;2023-02-24T06:12:20;98732.44;;;4.83;100.00
13800;BME280;6971;50.028;9.258;2023-02-24T06:17:21;98720.44;;;4.79;100.00
13800;BME280;6971;50.028;9.258;2023-02-24T06:22:23;98725.28;;;4.89;100.00
13800;BME280;6971;50.028;9.258;2023-02-24T06:27:25;98720.28;;;4.82;100.00
13800;BME280;6971;50.028;9.258;2023-02-24T06:32:26;98721.94;;;4.85;100.00
13800;BME280;6971;50.028;9.258;2023-02-24T06:37:27;98708.56;;;4.93;100.00
13800;BME280;6971;50.028;9.258;2023-02-24T06:42:29;98723.88;;;4.80;100.00
13800;BME280;6971;50.028;9.258;2023-02-24T06:47:29;98721.47;;;4.96;100.00
13800;BME280;6971;50.028;9.258;2023-02-24T06:52:32;98723.31;;;4.94;100.00
13800;BME280;6971;50.028;9.258;2023-02-24T06:57:33;98715.88;;;4.85;100.00
13800;BME280;6971;50.028;9.258;2023-02-24T07:02:36;98723.69;;;5.05;100.00
13800;BME280;6971;50.028;9.258;2023-02-24T07:07:39;98716.53;;;5.11;100.00
13800;BME280;6971;50.028;9.258;2023-02-24T07:12:45;98716.25;;;5.17;100.00
13800;BME280;6971;50.028;9.258;2023-02-24T07:17:45;98734.22;;;5.25;100.00
13800;BME280;6971;50.028;9.258;2023-02-24T07:22:46;98726.06;;;5.32;100.00
13800;BME280;6971;50.028;9.258;2023-02-24T07:27:47;98717.28;;;5.33;100.00
13800;BME280;6971;50.028;9.258;2023-02-24T07:32:47;98711.78;;;5.40;100.00
13800;BME280;6971;50.028;9.258;2023-02-24T07:37:48;98705.91;;;5.55;100.00
13800;BME280;6971;50.028;9.258;2023-02-24T07:42:49;98698.81;;;5.57;100.00
13800;BME280;6971;50.028;9.258;2023-02-24T07:47:49;98700.59;;;5.76;100.00
13800;BME280;6971;50.028;9.258;2023-02-24T07:52:49;98692.75;;;5.76;100.00
13800;BME280;6971;50.028;9.258;2023-02-24T07:57:51;98689.00;;;5.82;100.00
13800;BME280;6971;50.028;9.258;2023-02-24T08:02:54;98689.56;;;5.88;100.00
13800;BME280;6971;50.028;9.258;2023-02-24T08:07:55;98683.28;;;5.93;100.00
13800;BME280;6971;50.028;9.258;2023-02-24T08:12:56;98678.28;;;5.88;100.00
13800;BME280;6971;50.028;9.258;2023-02-24T08:18:02;98678.69;;;5.79;100.00
13800;BME280;6971;50.028;9.258;2023-02-24T08:23:03;98673.75;;;5.72;100.00
13800;BME280;6971;50.028;9.258;2023-02-24T08:28:07;98672.06;;;5.71;100.00
13800;BME280;6971;50.028;9.258;2023-02-24T08:33:21;98670.50;;;5.86;100.00
13800;BME280;6971;50.028;9.258;2023-02-24T08:38:22;98655.44;;;5.92;100.00
13800;BME280;6971;50.028;9.258;2023-02-24T08:43:27;98644.25;;;6.07;100.00
13800;BME280;6971;50.028;9.258;2023-02-24T08:53:50;98636.41;;;6.07;100.00
13800;BME280;6971;50.028;9.258;2023-02-24T08:58:59;98631.91;;;6.11;100.00
13800;BME280;6971;50.028;9.258;2023-02-24T09:04:08;98621.38;;;6.12;100.00
13800;BME280;6971;50.028;9.258;2023-02-24T09:09:10;98622.88;;;6.17;100.00
13800;BME280;6971;50.028;9.258;2023-02-24T09:14:18;98619.13;;;6.22;100.00
13800;BME280;6971;50.028;9.258;2023-02-24T09:19:19;98610.91;;;6.30;100.00
13800;BME280;6971;50.028;9.258;2023-02-24T09:24:42;98612.44;;;6.52;100.00
13800;BME280;6971;50.028;9.258;2023-02-24T09:29:43;98611.81;;;6.47;100.00
13800;BME280;6971;50.028;9.258;2023-02-24T09:34:50;98599.59;;;6.47;100.00
13800;BME280;6971;50.028;9.258;2023-02-24T09:39:53;98600.75;;;6.42;100.00
13800;BME280;6971;50.028;9.258;2023-02-24T09:44:55;98599.19;;;6.73;100.00
13800;BME280;6971;50.028;9.258;2023-02-24T09:50:02;98598.34;;;6.72;100.00
13800;BME280;6971;50.028;9.258;2023-02-24T09:55:16;98588.44;;;6.95;100.00
13800;BME280;6971;50.028;9.258;2023-02-24T10:00:31;98573.41;;;6.99;100.00
13800;BME280;6971;50.028;9.258;2023-02-24T10:05:40;98560.16;;;7.02;100.00
13800;BME280;6971;50.028;9.258;2023-02-24T10:10:46;98557.34;;;7.05;100.00
13800;BME280;6971;50.028;9.258;2023-02-24T10:16:10;98551.63;;;7.14;100.00
13800;BME280;6971;50.028;9.258;2023-02-24T10:26:55;98540.28;;;6.98;100.00
13800;BME280;6971;50.028;9.258;2023-02-24T10:32:16;98515.03;;;6.97;100.00
13800;BME280;6971;50.028;9.258;2023-02-24T10:37:23;98508.63;;;7.35;100.00
13800;BME280;6971;50.028;9.258;2023-02-24T10:42:31;98519.50;;;7.27;100.00
13800;BME280;6971;50.028;9.258;2023-02-24T10:47:33;98517.63;;;6.97;99.61
13800;BME280;6971;50.028;9.258;2023-02-24T10:57:43;98492.13;;;7.00;100.00
13800;BME280;6971;50.028;9.258;2023-02-24T11:02:56;98485.84;;;7.19;98.44
13800;BME280;6971;50.028;9.258;2023-02-24T11:08:15;98478.81;;;8.13;95.37
13800;BME280;6971;50.028;9.258;2023-02-24T11:13:35;98454.03;;;8.03;92.77
13800;BME280;6971;50.028;9.258;2023-02-24T11:18:55;98448.31;;;7.96;89.25
13800;BME280;6971;50.028;9.258;2023-02-24T11:23:58;98433.72;;;7.61;88.71
13800;BME280;6971;50.028;9.258;2023-02-24T11:29:26;98423.94;;;7.79;88.17
13800;BME280;6971;50.028;9.258;2023-02-24T11:34:55;98410.03;;;8.08;86.08
13800;BME280;6971;50.028;9.258;2023-02-24T11:40:16;98405.50;;;7.95;86.15
13800;BME280;6971;50.028;9.258;2023-02-24T11:45:42;98390.50;;;7.83;84.60
13800;BME280;6971;50.028;9.258;2023-02-24T11:50:46;98384.50;;;7.81;84.34
13800;BME280;6971;50.028;9.258;2023-02-24T11:55:56;98366.91;;;7.97;85.48
13800;BME280;6971;50.028;9.258;2023-02-24T12:01:12;98364.91;;;7.87;86.40
13800;BME280;6971;50.028;9.258;2023-02-24T12:06:21;98360.13;;;7.64;84.98
13800;BME280;6971;50.028;9.258;2023-02-24T12:16:42;98330.63;;;8.33;84.17
13800;BME280;6971;50.028;9.258;2023-02-24T12:21:50;98330.91;;;8.58;82.73
13800;BME280;6971;50.028;9.258;2023-02-24T12:54:05;98282.34;;;8.07;76.02
13800;BME280;6971;50.028;9.258;2023-02-24T12:59:14;98265.50;;;7.96;74.22
13800;BME280;6971;50.028;9.258;2023-02-24T13:14:38;98245.84;;;8.04;71.03
13800;BME280;6971;50.028;9.258;2023-02-24T13:19:44;98241.09;;;8.23;71.10
13800;BME280;6971;50.028;9.258;2023-02-24T13:45:18;98222.22;;;7.89;66.30
13800;BME280;6971;50.028;9.258;2023-02-24T13:50:26;98220.84;;;7.83;67.30
13800;BME280;6971;50.028;9.258;2023-02-24T13:55:52;98205.94;;;7.84;65.98
13800;BME280;6971;50.028;9.258;2023-02-24T14:06:05;98196.31;;;7.70;70.47
13800;BME280;6971;50.028;9.258;2023-02-24T14:11:14;98187.78;;;7.52;70.65
13800;BME280;6971;50.028;9.258;2023-02-24T14:16:25;98183.69;;;7.48;69.75
13800;BME280;6971;50.028;9.258;2023-02-24T14:21:29;98176.66;;;7.63;69.93
13800;BME280;6971;50.028;9.258;2023-02-24T14:26:36;98170.00;;;7.57;71.04
13800;BME280;6971;50.028;9.258;2023-02-24T14:31:40;98159.34;;;7.46;71.10
13800;BME280;6971;50.028;9.258;2023-02-24T14:36:46;98160.47;;;7.41;71.69
13800;BME280;6971;50.028;9.258;2023-02-24T14:41:48;98149.97;;;7.12;71.93
13800;BME280;6971;50.028;9.258;2023-02-24T14:46:55;98144.47;;;7.17;71.82
13800;BME280;6971;50.028;9.258;2023-02-24T14:52:13;98133.59;;;7.09;71.73
13800;BME280;6971;50.028;9.258;2023-02-24T14:57:20;98138.75;;;7.25;72.58
13800;BME280;6971;50.028;9.258;2023-02-24T15:02:25;98125.34;;;7.00;72.26
13800;BME280;6971;50.028;9.258;2023-02-24T15:07:32;98127.31;;;6.97;72.98
13800;BME280;6971;50.028;9.258;2023-02-24T15:12:42;98117.75;;;6.96;72.63
13800;BME280;6971;50.028;9.258;2023-02-24T15:17:44;98110.38;;;7.02;73.82
13800;BME280;6971;50.028;9.258;2023-02-24T15:22:48;98110.19;;;7.05;73.05
13800;BME280;6971;50.028;9.258;2023-02-24T15:27:57;98099.25;;;6.84;73.38
13800;BME280;6971;50.028;9.258;2023-02-24T15:33:19;98098.69;;;6.79;73.60
13800;BME280;6971;50.028;9.258;2023-02-24T15:38:28;98103.16;;;6.91;74.06
13800;BME280;6971;50.028;9.258;2023-02-24T15:43:35;98096.34;;;6.89;73.84
13800;BME280;6971;50.028;9.258;2023-02-24T15:48:42;98092.50;;;6.65;74.67
13800;BME280;6971;50.028;9.258;2023-02-24T15:53:42;98088.09;;;6.66;75.56
13800;BME280;6971;50.028;9.258;2023-02-24T15:58:43;98092.44;;;6.51;76.91
13800;BME280;6971;50.028;9.258;2023-02-24T16:03:44;98095.59;;;6.72;76.77
13800;BME280;6971;50.028;9.258;2023-02-24T16:08:46;98082.84;;;6.51;77.42
13800;BME280;6971;50.028;9.258;2023-02-24T16:13:51;98083.16;;;6.31;78.17
13800;BME280;6971;50.028;9.258;2023-02-24T16:18:52;98090.81;;;6.34;79.42
13800;BME280;6971;50.028;9.258;2023-02-24T16:23:52;98084.09;;;6.30;80.86
13800;BME280;6971;50.028;9.258;2023-02-24T16:28:56;98080.09;;;5.92;83.94
13800;BME280;6971;50.028;9.258;2023-02-24T16:33:56;98092.06;;;5.96;86.57
13800;BME280;6971;50.028;9.258;2023-02-24T16:38:57;98092.66;;;5.85;89.63
13800;BME280;6971;50.028;9.258;2023-02-24T16:43:57;98101.69;;;5.63;94.07
13800;BME280;6971;50.028;9.258;2023-02-24T16:48:58;98091.16;;;5.32;96.31
13800;BME280;6971;50.028;9.258;2023-02-24T16:53:58;98101.69;;;4.97;93.70
13800;BME280;6971;50.028;9.258;2023-02-24T16:58:59;98107.09;;;4.76;98.49
13800;BME280;6971;50.028;9.258;2023-02-24T17:03:59;98118.56;;;4.38;100.00
13800;BME280;6971;50.028;9.258;2023-02-24T17:08:59;98125.38;;;4.23;100.00
13800;BME280;6971;50.028;9.258;2023-02-24T17:14:00;98123.91;;;4.17;100.00
13800;BME280;6971;50.028;9.258;2023-02-24T17:19:00;98124.09;;;3.95;100.00
13800;BME280;6971;50.028;9.258;2023-02-24T17:24:00;98127.50;;;4.15;100.00
13800;BME280;6971;50.028;9.258;2023-02-24T17:29:01;98132.16;;;4.08;100.00
13800;BME280;6971;50.028;9.258;2023-02-24T17:34:01;98121.78;;;3.89;100.00
13800;BME280;6971;50.028;9.258;2023-02-24T17:39:02;98133.03;;;4.09;100.00
13800;BME280;6971;50.028;9.258;2023-02-24T17:44:02;98129.03;;;3.82;100.00
13800;BME280;6971;50.028;9.258;2023-02-24T17:49:02;98134.75;;;3.90;100.00
13800;BME280;6971;50.028;9.258;2023-02-24T17:54:04;98134.38;;;3.98;100.00
13800;BME280;6971;50.028;9.258;2023-02-24T17:59:04;98138.81;;;3.96;100.00
13800;BME280;6971;50.028;9.258;2023-02-24T18:04:05;98138.28;;;3.70;100.00
13800;BME280;6971;50.028;9.258;2023-02-24T18:09:05;98135.69;;;3.70;100.00
13800;BME280;6971;50.028;9.258;2023-02-24T18:14:06;98144.69;;;3.63;100.00
13800;BME280;6971;50.028;9.258;2023-02-24T18:19:06;98144.84;;;3.60;100.00
13800;BME280;6971;50.028;9.258;2023-02-24T18:24:08;98133.28;;;3.65;100.00
13800;BME280;6971;50.028;9.258;2023-02-24T18:29:08;98132.94;;;3.73;100.00
13800;BME280;6971;50.028;9.258;2023-02-24T18:34:09;98122.53;;;3.54;100.00
13800;BME280;6971;50.028;9.258;2023-02-24T18:39:09;98118.13;;;3.55;100.00
13800;BME280;6971;50.028;9.258;2023-02-24T18:44:13;98116.19;;;3.60;100.00
13800;BME280;6971;50.028;9.258;2023-02-24T18:49:14;98116.59;;;3.50;100.00
13800;BME280;6971;50.028;9.258;2023-02-24T18:54:14;98116.50;;;3.52;100.00
13800;BME280;6971;50.028;9.258;2023-02-24T18:59:15;98120.13;;;3.49;100.00
13800;BME280;6971;50.028;9.258;2023-02-24T19:04:15;98118.97;;;3.36;100.00
13800;BME280;6971;50.028;9.258;2023-02-24T19:09:17;98119.97;;;3.52;100.00
13800;BME280;6971;50.028;9.258;2023-02-24T19:14:21;98115.13;;;3.45;100.00
13800;BME280;6971;50.028;9.258;2023-02-24T19:19:22;98111.81;;;3.41;100.00
13800;BME280;6971;50.028;9.258;2023-02-24T19:24:22;98110.25;;;3.37;100.00
13800;BME280;6971;50.028;9.258;2023-02-24T19:29:23;98123.34;;;3.55;100.00
13800;BME280;6971;50.028;9.258;2023-02-24T19:34:23;98114.41;;;3.41;100.00
13800;BME280;6971;50.028;9.258;2023-02-24T19:39:24;98115.53;;;3.55;100.00
13800;BME280;6971;50.028;9.258;2023-02-24T19:44:24;98114.34;;;3.43;100.00
13800;BME280;6971;50.028;9.258;2023-02-24T19:49:25;98107.81;;;3.53;100.00
13800;BME280;6971;50.028;9.258;2023-02-24T19:54:26;98090.88;;;3.62;100.00
13800;BME280;6971;50.028;9.258;2023-02-24T19:59:28;98099.75;;;3.38;100.00
13800;BME280;6971;50.028;9.258;2023-02-24T20:04:31;98099.00;;;3.56;100.00
13800;BME280;6971;50.028;9.258;2023-02-24T20:09:31;98099.00;;;3.56;100.00
13800;BME280;6971;50.028;9.258;2023-02-24T20:14:31;98098.09;;;3.37;100.00
13800;BME280;6971;50.028;9.258;2023-02-24T20:19:32;98089.47;;;3.55;100.00
13800;BME280;6971;50.028;9.258;2023-02-24T20:24:32;98096.34;;;3.38;100.00
13800;BME280;6971;50.028;9.258;2023-02-24T20:29:34;98103.53;;;3.33;100.00
13800;BME280;6971;50.028;9.258;2023-02-24T20:34:36;98107.88;;;3.51;100.00
13800;BME280;6971;50.028;9.258;2023-02-24T20:39:37;98094.78;;;3.34;100.00
13800;BME280;6971;50.028;9.258;2023-02-24T20:44:38;98101.53;;;3.38;100.00
13800;BME280;6971;50.028;9.258;2023-02-24T20:49:39;98100.56;;;3.41;100.00
13800;BME280;6971;50.028;9.258;2023-02-24T20:54:39;98100.19;;;3.48;100.00
13800;BME280;6971;50.028;9.258;2023-02-24T20:59:43;98088.22;;;3.44;100.00
13800;BME280;6971;50.028;9.258;2023-02-24T21:04:44;98096.16;;;3.41;100.00
13800;BME280;6971;50.028;9.258;2023-02-24T21:09:44;98084.78;;;3.05;100.00
13800;BME280;6971;50.028;9.258;2023-02-24T21:14:44;98079.28;;;3.11;100.00
13800;BME280;6971;50.028;9.258;2023-02-24T21:19:45;98086.47;;;3.25;100.00
13800;BME280;6971;50.028;9.258;2023-02-24T21:24:45;98088.00;;;3.10;100.00
13800;BME280;6971;50.028;9.258;2023-02-24T21:29:46;98071.47;;;3.11;100.00
13800;BME280;6971;50.028;9.258;2023-02-24T21:34:46;98073.81;;;3.18;100.00
13800;BME280;6971;50.028;9.258;2023-02-24T21:39:46;98077.03;;;3.23;100.00
13800;BME280;6971;50.028;9.258;2023-02-24T21:44:47;98081.25;;;3.25;100.00
13800;BME280;6971;50.028;9.258;2023-02-24T21:49:51;98079.59;;;3.24;100.00
13800;BME280;6971;50.028;9.258;2023-02-24T21:54:51;98087.31;;;3.26;100.00
13800;BME280;6971;50.028;9.258;2023-02-24T21:59:52;98089.72;;;3.31;100.00
13800;BME280;6971;50.028;9.258;2023-02-24T22:04:52;98090.19;;;3.39;100.00
13800;BME280;6971;50.028;9.258;2023-02-24T22:09:53;98090.69;;;3.28;100.00
13800;BME280;6971;50.028;9.258;2023-02-24T22:14:53;98091.13;;;3.19;100.00
13800;BME280;6971;50.028;9.258;2023-02-24T22:19:53;98093.66;;;3.20;100.00
13800;BME280;6971;50.028;9.258;2023-02-24T22:24:55;98099.13;;;3.33;100.00
13800;BME280;6971;50.028;9.258;2023-02-24T22:29:55;98106.59;;;3.22;100.00
13800;BME280;6971;50.028;9.258;2023-02-24T22:34:56;98100.91;;;3.33;100.00
13800;BME280;6971;50.028;9.258;2023-02-24T22:39:56;98100.66;;;3.18;100.00
13800;BME280;6971;50.028;9.258;2023-02-24T22:44:56;98104.06;;;3.20;100.00
13800;BME280;6971;50.028;9.258;2023-02-24T22:49:56;98105.13;;;3.16;100.00
13800;BME280;6971;50.028;9.258;2023-02-24T22:54:57;98106.09;;;3.13;100.00
13800;BME280;6971;50.028;9.258;2023-02-24T22:59:57;98109.53;;;3.14;100.00
13800;BME280;6971;50.028;9.258;2023-02-24T23:04:57;98117.56;;;3.09;100.00
13800;BME280;6971;50.028;9.258;2023-02-24T23:09:58;98123.09;;;3.02;100.00
13800;BME280;6971;50.028;9.258;2023-02-24T23:14:58;98115.69;;;2.92;100.00
13800;BME280;6971;50.028;9.258;2023-02-24T23:19:58;98127.22;;;2.86;100.00
13800;BME280;6971;50.028;9.258;2023-02-24T23:24:59;98142.13;;;2.83;100.00
13800;BME280;6971;50.028;9.258;2023-02-24T23:30:00;98142.25;;;2.80;100.00
13800;BME280;6971;50.028;9.258;2023-02-24T23:35:00;98156.16;;;2.79;100.00
13800;BME280;6971;50.028;9.258;2023-02-24T23:40:00;98150.25;;;2.75;100.00
13800;BME280;6971;50.028;9.258;2023-02-24T23:45:02;98158.75;;;2.79;100.00
13800;BME280;6971;50.028;9.258;2023-02-24T23:50:03;98159.03;;;2.72;100.00
13800;BME280;6971;50.028;9.258;2023-02-24T23:55:03;98172.75;;;2.76;100.00
